sensor_id;sensor_type;location;lat;lon;timestamp;temperature;humidity
42743;DHT22;28397;44.552;-0.848;2023-05-29T00:01:44;20.20;99.90
42743;DHT22;28397;44.552;-0.848;2023-05-29T00:04:11;20.20;99.90
42743;DHT22;28397;44.552;-0.848;2023-05-29T00:06:37;20.20;99.90
42743;DHT22;28397;44.552;-0.848;2023-05-29T00:09:03;20.30;99.90
42743;DHT22;28397;44.552;-0.848;2023-05-29T00:11:29;20.30;99.90
42743;DHT22;28397;44.552;-0.848;2023-05-29T00:13:55;20.20;99.90
42743;DHT22;28397;44.552;-0.848;2023-05-29T00:16:22;20.20;99.90
42743;DHT22;28397;44.552;-0.848;2023-05-29T00:18:49;20.10;99.90
42743;DHT22;28397;44.552;-0.848;2023-05-29T00:21:15;20.10;99.90
42743;DHT22;28397;44.552;-0.848;2023-05-29T00:23:41;20.00;99.90
42743;DHT22;28397;44.552;-0.848;2023-05-29T00:26:07;19.90;99.90
42743;DHT22;28397;44.552;-0.848;2023-05-29T00:28:34;19.90;99.90
42743;DHT22;28397;44.552;-0.848;2023-05-29T00:30:59;19.90;99.90
42743;DHT22;28397;44.552;-0.848;2023-05-29T00:33:26;19.90;99.90
42743;DHT22;28397;44.552;-0.848;2023-05-29T00:35:52;19.80;99.90
42743;DHT22;28397;44.552;-0.848;2023-05-29T00:38:17;19.80;99.90
42743;DHT22;28397;44.552;-0.848;2023-05-29T00:40:43;19.70;99.90
42743;DHT22;28397;44.552;-0.848;2023-05-29T00:43:09;19.70;99.90
42743;DHT22;28397;44.552;-0.848;2023-05-29T00:45:34;19.70;99.90
42743;DHT22;28397;44.552;-0.848;2023-05-29T00:48:03;19.70;99.90
42743;DHT22;28397;44.552;-0.848;2023-05-29T00:50:29;19.60;99.90
42743;DHT22;28397;44.552;-0.848;2023-05-29T00:52:55;19.60;99.90
42743;DHT22;28397;44.552;-0.848;2023-05-29T00:55:21;19.50;99.90
42743;DHT22;28397;44.552;-0.848;2023-05-29T00:57:47;19.50;99.90
42743;DHT22;28397;44.552;-0.848;2023-05-29T01:00:15;19.50;99.90
42743;DHT22;28397;44.552;-0.848;2023-05-29T01:02:42;19.50;99.90
42743;DHT22;28397;44.552;-0.848;2023-05-29T01:05:13;19.40;99.90
42743;DHT22;28397;44.552;-0.848;2023-05-29T01:07:40;19.30;99.90
42743;DHT22;28397;44.552;-0.848;2023-05-29T01:10:07;19.30;99.90
42743;DHT22;28397;44.552;-0.848;2023-05-29T01:12:54;19.30;99.90
42743;DHT22;28397;44.552;-0.848;2023-05-29T01:20:58;19.20;99.90
42743;DHT22;28397;44.552;-0.848;2023-05-29T01:26:52;19.20;99.90
42743;DHT22;28397;44.552;-0.848;2023-05-29T01:29:22;19.20;99.90
42743;DHT22;28397;44.552;-0.848;2023-05-29T01:31:50;19.20;99.90
42743;DHT22;28397;44.552;-0.848;2023-05-29T01:34:17;19.10;99.90
42743;DHT22;28397;44.552;-0.848;2023-05-29T01:36:42;19.10;99.90
42743;DHT22;28397;44.552;-0.848;2023-05-29T01:39:09;19.00;99.90
42743;DHT22;28397;44.552;-0.848;2023-05-29T01:41:36;19.00;99.90
42743;DHT22;28397;44.552;-0.848;2023-05-29T01:44:04;19.00;99.90
42743;DHT22;28397;44.552;-0.848;2023-05-29T01:46:35;18.90;99.90
42743;DHT22;28397;44.552;-0.848;2023-05-29T01:49:01;18.90;99.90
42743;DHT22;28397;44.552;-0.848;2023-05-29T01:51:27;18.90;99.90
42743;DHT22;28397;44.552;-0.848;2023-05-29T01:53:53;18.90;99.90
42743;DHT22;28397;44.552;-0.848;2023-05-29T01:56:19;18.90;99.90
42743;DHT22;28397;44.552;-0.848;2023-05-29T01:58:46;18.90;99.90
42743;DHT22;28397;44.552;-0.848;2023-05-29T02:01:12;18.90;99.90
42743;DHT22;28397;44.552;-0.848;2023-05-29T02:03:38;18.90;99.90
42743;DHT22;28397;44.552;-0.848;2023-05-29T02:06:03;18.80;99.90
42743;DHT22;28397;44.552;-0.848;2023-05-29T02:08:29;18.70;99.90
42743;DHT22;28397;44.552;-0.848;2023-05-29T02:10:55;18.60;99.90
42743;DHT22;28397;44.552;-0.848;2023-05-29T02:13:21;18.60;99.90
42743;DHT22;28397;44.552;-0.848;2023-05-29T02:15:46;18.50;99.90
42743;DHT22;28397;44.552;-0.848;2023-05-29T02:18:14;18.60;99.90
42743;DHT22;28397;44.552;-0.848;2023-05-29T02:20:41;18.50;99.90
42743;DHT22;28397;44.552;-0.848;2023-05-29T02:23:10;18.40;99.90
42743;DHT22;28397;44.552;-0.848;2023-05-29T02:25:35;18.40;99.90
42743;DHT22;28397;44.552;-0.848;2023-05-29T02:28:01;18.30;99.90
42743;DHT22;28397;44.552;-0.848;2023-05-29T02:30:28;18.30;99.90
42743;DHT22;28397;44.552;-0.848;2023-05-29T02:32:54;18.20;99.90
42743;DHT22;28397;44.552;-0.848;2023-05-29T02:35:20;18.20;99.90
42743;DHT22;28397;44.552;-0.848;2023-05-29T02:37:51;18.20;99.90
42743;DHT22;28397;44.552;-0.848;2023-05-29T02:40:17;18.10;99.90
42743;DHT22;28397;44.552;-0.848;2023-05-29T02:42:43;18.10;99.90
42743;DHT22;28397;44.552;-0.848;2023-05-29T02:45:09;18.00;99.90
42743;DHT22;28397;44.552;-0.848;2023-05-29T02:47:35;18.00;99.90
42743;DHT22;28397;44.552;-0.848;2023-05-29T02:50:02;17.90;99.90
42743;DHT22;28397;44.552;-0.848;2023-05-29T02:52:28;17.90;99.90
42743;DHT22;28397;44.552;-0.848;2023-05-29T02:54:55;17.90;99.90
42743;DHT22;28397;44.552;-0.848;2023-05-29T02:57:21;17.90;99.90
42743;DHT22;28397;44.552;-0.848;2023-05-29T02:59:47;17.80;99.90
42743;DHT22;28397;44.552;-0.848;2023-05-29T03:02:13;17.80;99.90
42743;DHT22;28397;44.552;-0.848;2023-05-29T03:04:38;17.80;99.90
42743;DHT22;28397;44.552;-0.848;2023-05-29T03:07:04;17.70;99.90
42743;DHT22;28397;44.552;-0.848;2023-05-29T03:09:30;17.70;99.90
42743;DHT22;28397;44.552;-0.848;2023-05-29T03:11:55;17.60;99.90
42743;DHT22;28397;44.552;-0.848;2023-05-29T03:14:21;17.60;99.90
42743;DHT22;28397;44.552;-0.848;2023-05-29T03:16:48;17.60;99.90
42743;DHT22;28397;44.552;-0.848;2023-05-29T03:19:14;17.60;99.90
42743;DHT22;28397;44.552;-0.848;2023-05-29T03:21:40;17.50;99.90
42743;DHT22;28397;44.552;-0.848;2023-05-29T03:24:06;17.50;99.90
42743;DHT22;28397;44.552;-0.848;2023-05-29T03:26:32;17.50;99.90
42743;DHT22;28397;44.552;-0.848;2023-05-29T03:28:57;17.50;99.90
42743;DHT22;28397;44.552;-0.848;2023-05-29T03:31:23;17.50;99.90
42743;DHT22;28397;44.552;-0.848;2023-05-29T03:33:49;17.40;99.90
42743;DHT22;28397;44.552;-0.848;2023-05-29T03:36:14;17.40;99.90
42743;DHT22;28397;44.552;-0.848;2023-05-29T03:38:42;17.40;99.90
42743;DHT22;28397;44.552;-0.848;2023-05-29T03:41:08;17.40;99.90
42743;DHT22;28397;44.552;-0.848;2023-05-29T03:43:34;17.40;99.90
42743;DHT22;28397;44.552;-0.848;2023-05-29T03:46:01;17.40;99.90
42743;DHT22;28397;44.552;-0.848;2023-05-29T03:48:27;17.30;99.90
42743;DHT22;28397;44.552;-0.848;2023-05-29T03:50:53;17.30;99.90
42743;DHT22;28397;44.552;-0.848;2023-05-29T03:53:18;17.30;99.90
42743;DHT22;28397;44.552;-0.848;2023-05-29T03:55:44;17.30;99.90
42743;DHT22;28397;44.552;-0.848;2023-05-29T03:58:10;17.30;99.90
42743;DHT22;28397;44.552;-0.848;2023-05-29T04:00:38;17.20;99.90
42743;DHT22;28397;44.552;-0.848;2023-05-29T04:03:04;17.20;99.90
42743;DHT22;28397;44.552;-0.848;2023-05-29T04:05:29;17.20;99.90
42743;DHT22;28397;44.552;-0.848;2023-05-29T04:07:56;17.10;99.90
42743;DHT22;28397;44.552;-0.848;2023-05-29T04:10:22;17.10;99.90
42743;DHT22;28397;44.552;-0.848;2023-05-29T04:12:49;17.10;99.90
42743;DHT22;28397;44.552;-0.848;2023-05-29T04:15:14;17.10;99.90
42743;DHT22;28397;44.552;-0.848;2023-05-29T04:17:40;17.10;99.90
42743;DHT22;28397;44.552;-0.848;2023-05-29T04:20:06;17.10;99.90
42743;DHT22;28397;44.552;-0.848;2023-05-29T04:22:37;17.10;99.90
42743;DHT22;28397;44.552;-0.848;2023-05-29T04:25:04;17.10;99.90
42743;DHT22;28397;44.552;-0.848;2023-05-29T04:27:30;17.00;99.90
42743;DHT22;28397;44.552;-0.848;2023-05-29T04:29:58;17.00;99.90
42743;DHT22;28397;44.552;-0.848;2023-05-29T04:32:24;17.00;99.90
42743;DHT22;28397;44.552;-0.848;2023-05-29T04:34:50;17.00;99.90
42743;DHT22;28397;44.552;-0.848;2023-05-29T04:37:16;17.00;99.90
42743;DHT22;28397;44.552;-0.848;2023-05-29T04:39:43;17.00;99.90
42743;DHT22;28397;44.552;-0.848;2023-05-29T04:42:08;17.00;99.90
42743;DHT22;28397;44.552;-0.848;2023-05-29T04:44:34;17.00;99.90
42743;DHT22;28397;44.552;-0.848;2023-05-29T04:47:00;17.00;99.90
42743;DHT22;28397;44.552;-0.848;2023-05-29T04:49:28;16.90;99.90
42743;DHT22;28397;44.552;-0.848;2023-05-29T04:51:54;17.00;99.90
42743;DHT22;28397;44.552;-0.848;2023-05-29T04:54:21;16.90;99.90
42743;DHT22;28397;44.552;-0.848;2023-05-29T04:56:48;16.90;99.90
42743;DHT22;28397;44.552;-0.848;2023-05-29T04:59:14;17.00;99.90
42743;DHT22;28397;44.552;-0.848;2023-05-29T05:01:40;17.00;99.90
42743;DHT22;28397;44.552;-0.848;2023-05-29T05:04:08;17.00;99.90
42743;DHT22;28397;44.552;-0.848;2023-05-29T05:06:34;17.00;99.90
42743;DHT22;28397;44.552;-0.848;2023-05-29T05:09:00;17.00;99.90
42743;DHT22;28397;44.552;-0.848;2023-05-29T05:11:26;16.90;99.90
42743;DHT22;28397;44.552;-0.848;2023-05-29T05:13:52;16.90;99.90
42743;DHT22;28397;44.552;-0.848;2023-05-29T05:16:17;17.00;99.90
42743;DHT22;28397;44.552;-0.848;2023-05-29T05:18:44;17.00;99.90
42743;DHT22;28397;44.552;-0.848;2023-05-29T05:21:10;17.00;99.90
42743;DHT22;28397;44.552;-0.848;2023-05-29T05:23:36;17.00;99.90
42743;DHT22;28397;44.552;-0.848;2023-05-29T05:26:02;17.00;99.90
42743;DHT22;28397;44.552;-0.848;2023-05-29T05:28:27;17.00;99.90
42743;DHT22;28397;44.552;-0.848;2023-05-29T05:30:53;17.10;99.90
42743;DHT22;28397;44.552;-0.848;2023-05-29T05:33:19;17.10;99.90
42743;DHT22;28397;44.552;-0.848;2023-05-29T05:35:44;17.10;99.90
42743;DHT22;28397;44.552;-0.848;2023-05-29T05:38:10;17.10;99.90
42743;DHT22;28397;44.552;-0.848;2023-05-29T05:40:36;17.10;99.90
42743;DHT22;28397;44.552;-0.848;2023-05-29T05:43:02;17.20;99.90
42743;DHT22;28397;44.552;-0.848;2023-05-29T05:45:28;17.20;99.90
42743;DHT22;28397;44.552;-0.848;2023-05-29T05:47:53;17.20;99.90
42743;DHT22;28397;44.552;-0.848;2023-05-29T05:50:19;17.30;99.90
42743;DHT22;28397;44.552;-0.848;2023-05-29T05:52:46;17.30;99.90
42743;DHT22;28397;44.552;-0.848;2023-05-29T05:55:12;17.30;99.90
42743;DHT22;28397;44.552;-0.848;2023-05-29T05:57:37;17.30;99.90
42743;DHT22;28397;44.552;-0.848;2023-05-29T06:00:04;17.30;99.90
42743;DHT22;28397;44.552;-0.848;2023-05-29T06:02:33;17.40;99.90
42743;DHT22;28397;44.552;-0.848;2023-05-29T06:04:59;17.40;99.90
42743;DHT22;28397;44.552;-0.848;2023-05-29T06:07:24;17.40;99.90
42743;DHT22;28397;44.552;-0.848;2023-05-29T06:09:50;17.50;99.90
42743;DHT22;28397;44.552;-0.848;2023-05-29T06:12:16;17.50;99.90
42743;DHT22;28397;44.552;-0.848;2023-05-29T06:14:41;17.50;99.90
42743;DHT22;28397;44.552;-0.848;2023-05-29T06:17:07;17.60;99.90
42743;DHT22;28397;44.552;-0.848;2023-05-29T06:19:33;17.60;99.90
42743;DHT22;28397;44.552;-0.848;2023-05-29T06:21:58;17.70;99.90
42743;DHT22;28397;44.552;-0.848;2023-05-29T06:24:24;17.80;99.90
42743;DHT22;28397;44.552;-0.848;2023-05-29T06:26:50;17.90;99.90
42743;DHT22;28397;44.552;-0.848;2023-05-29T06:29:15;17.90;99.90
42743;DHT22;28397;44.552;-0.848;2023-05-29T06:31:41;17.90;99.90
42743;DHT22;28397;44.552;-0.848;2023-05-29T06:34:07;18.10;99.90
42743;DHT22;28397;44.552;-0.848;2023-05-29T06:36:32;18.10;99.90
42743;DHT22;28397;44.552;-0.848;2023-05-29T06:38:58;18.20;99.90
42743;DHT22;28397;44.552;-0.848;2023-05-29T06:41:24;18.20;99.90
42743;DHT22;28397;44.552;-0.848;2023-05-29T06:43:50;18.30;99.90
42743;DHT22;28397;44.552;-0.848;2023-05-29T06:46:17;18.30;99.90
42743;DHT22;28397;44.552;-0.848;2023-05-29T06:48:42;18.40;99.90
42743;DHT22;28397;44.552;-0.848;2023-05-29T06:51:09;18.40;99.90
42743;DHT22;28397;44.552;-0.848;2023-05-29T06:53:40;18.50;99.90
42743;DHT22;28397;44.552;-0.848;2023-05-29T06:56:06;18.50;99.90
42743;DHT22;28397;44.552;-0.848;2023-05-29T06:58:33;18.60;99.90
42743;DHT22;28397;44.552;-0.848;2023-05-29T07:00:59;18.70;99.90
42743;DHT22;28397;44.552;-0.848;2023-05-29T07:03:28;18.70;99.90
42743;DHT22;28397;44.552;-0.848;2023-05-29T07:05:54;18.80;99.90
42743;DHT22;28397;44.552;-0.848;2023-05-29T07:08:20;18.80;99.90
42743;DHT22;28397;44.552;-0.848;2023-05-29T07:10:46;18.90;99.90
42743;DHT22;28397;44.552;-0.848;2023-05-29T07:13:15;19.00;99.90
42743;DHT22;28397;44.552;-0.848;2023-05-29T07:15:41;19.00;99.90
42743;DHT22;28397;44.552;-0.848;2023-05-29T07:18:07;19.00;99.90
42743;DHT22;28397;44.552;-0.848;2023-05-29T07:20:33;19.20;99.90
42743;DHT22;28397;44.552;-0.848;2023-05-29T07:22:58;19.20;99.90
42743;DHT22;28397;44.552;-0.848;2023-05-29T07:25:25;19.30;99.90
42743;DHT22;28397;44.552;-0.848;2023-05-29T07:27:51;19.40;99.90
42743;DHT22;28397;44.552;-0.848;2023-05-29T07:30:17;19.50;99.90
42743;DHT22;28397;44.552;-0.848;2023-05-29T07:32:43;19.50;99.90
42743;DHT22;28397;44.552;-0.848;2023-05-29T07:35:09;19.60;99.90
42743;DHT22;28397;44.552;-0.848;2023-05-29T07:37:35;19.70;99.90
42743;DHT22;28397;44.552;-0.848;2023-05-29T07:40:01;19.80;99.90
42743;DHT22;28397;44.552;-0.848;2023-05-29T07:42:27;19.90;99.90
42743;DHT22;28397;44.552;-0.848;2023-05-29T07:44:52;20.00;99.90
42743;DHT22;28397;44.552;-0.848;2023-05-29T07:47:18;20.00;99.90
42743;DHT22;28397;44.552;-0.848;2023-05-29T07:49:44;20.20;99.90
42743;DHT22;28397;44.552;-0.848;2023-05-29T07:52:09;20.20;99.90
42743;DHT22;28397;44.552;-0.848;2023-05-29T07:54:35;20.30;99.90
42743;DHT22;28397;44.552;-0.848;2023-05-29T07:57:01;20.50;99.90
42743;DHT22;28397;44.552;-0.848;2023-05-29T07:59:38;20.60;99.90
42743;DHT22;28397;44.552;-0.848;2023-05-29T08:02:05;20.60;99.90
42743;DHT22;28397;44.552;-0.848;2023-05-29T08:04:31;20.60;99.90
42743;DHT22;28397;44.552;-0.848;2023-05-29T08:07:02;20.70;99.90
42743;DHT22;28397;44.552;-0.848;2023-05-29T08:09:29;20.70;99.90
42743;DHT22;28397;44.552;-0.848;2023-05-29T08:11:54;20.80;99.90
42743;DHT22;28397;44.552;-0.848;2023-05-29T08:14:20;20.80;99.90
42743;DHT22;28397;44.552;-0.848;2023-05-29T08:16:46;20.90;99.90
42743;DHT22;28397;44.552;-0.848;2023-05-29T08:19:12;21.00;99.90
42743;DHT22;28397;44.552;-0.848;2023-05-29T08:21:37;21.00;99.90
42743;DHT22;28397;44.552;-0.848;2023-05-29T08:24:03;21.10;99.90
42743;DHT22;28397;44.552;-0.848;2023-05-29T08:26:32;21.10;99.90
42743;DHT22;28397;44.552;-0.848;2023-05-29T08:28:58;21.10;99.90
42743;DHT22;28397;44.552;-0.848;2023-05-29T08:31:24;21.20;99.90
42743;DHT22;28397;44.552;-0.848;2023-05-29T08:33:53;21.30;99.90
42743;DHT22;28397;44.552;-0.848;2023-05-29T08:36:19;21.30;99.90
42743;DHT22;28397;44.552;-0.848;2023-05-29T08:38:50;21.30;99.90
42743;DHT22;28397;44.552;-0.848;2023-05-29T08:44:13;21.60;99.90
42743;DHT22;28397;44.552;-0.848;2023-05-29T08:46:40;21.60;99.90
42743;DHT22;28397;44.552;-0.848;2023-05-29T08:49:07;21.60;99.90
42743;DHT22;28397;44.552;-0.848;2023-05-29T08:51:37;21.70;99.90
42743;DHT22;28397;44.552;-0.848;2023-05-29T08:54:04;21.70;99.90
42743;DHT22;28397;44.552;-0.848;2023-05-29T08:56:30;21.70;99.90
42743;DHT22;28397;44.552;-0.848;2023-05-29T08:58:57;21.90;99.90
42743;DHT22;28397;44.552;-0.848;2023-05-29T09:01:23;22.00;99.90
42743;DHT22;28397;44.552;-0.848;2023-05-29T09:03:50;22.00;99.90
42743;DHT22;28397;44.552;-0.848;2023-05-29T09:06:15;22.10;99.90
42743;DHT22;28397;44.552;-0.848;2023-05-29T09:08:42;22.10;99.90
42743;DHT22;28397;44.552;-0.848;2023-05-29T09:11:08;22.20;99.90
42743;DHT22;28397;44.552;-0.848;2023-05-29T09:13:34;22.20;99.90
42743;DHT22;28397;44.552;-0.848;2023-05-29T09:16:01;22.30;99.90
42743;DHT22;28397;44.552;-0.848;2023-05-29T09:18:31;22.40;99.90
42743;DHT22;28397;44.552;-0.848;2023-05-29T09:20:58;22.30;99.90
42743;DHT22;28397;44.552;-0.848;2023-05-29T09:23:25;22.20;99.90
42743;DHT22;28397;44.552;-0.848;2023-05-29T09:25:52;22.10;99.90
42743;DHT22;28397;44.552;-0.848;2023-05-29T09:28:19;22.10;99.90
42743;DHT22;28397;44.552;-0.848;2023-05-29T09:30:47;22.10;99.90
42743;DHT22;28397;44.552;-0.848;2023-05-29T09:33:14;22.00;99.90
42743;DHT22;28397;44.552;-0.848;2023-05-29T09:35:41;22.00;99.90
42743;DHT22;28397;44.552;-0.848;2023-05-29T09:38:08;22.20;99.90
42743;DHT22;28397;44.552;-0.848;2023-05-29T09:40:39;22.20;99.90
42743;DHT22;28397;44.552;-0.848;2023-05-29T09:43:08;22.20;99.90
42743;DHT22;28397;44.552;-0.848;2023-05-29T09:45:41;22.20;99.90
42743;DHT22;28397;44.552;-0.848;2023-05-29T09:48:12;22.10;99.90
42743;DHT22;28397;44.552;-0.848;2023-05-29T09:50:37;22.20;99.90
42743;DHT22;28397;44.552;-0.848;2023-05-29T09:53:19;22.20;99.90
42743;DHT22;28397;44.552;-0.848;2023-05-29T09:55:48;22.20;99.90
42743;DHT22;28397;44.552;-0.848;2023-05-29T09:58:17;22.20;99.90
42743;DHT22;28397;44.552;-0.848;2023-05-29T10:00:43;22.30;99.90
42743;DHT22;28397;44.552;-0.848;2023-05-29T10:03:10;22.40;99.90
42743;DHT22;28397;44.552;-0.848;2023-05-29T10:05:40;22.50;99.90
42743;DHT22;28397;44.552;-0.848;2023-05-29T10:08:13;22.60;99.90
42743;DHT22;28397;44.552;-0.848;2023-05-29T10:10:44;22.60;99.90
42743;DHT22;28397;44.552;-0.848;2023-05-29T10:13:13;22.60;99.90
42743;DHT22;28397;44.552;-0.848;2023-05-29T10:15:41;22.60;99.90
42743;DHT22;28397;44.552;-0.848;2023-05-29T10:18:22;22.70;99.90
42743;DHT22;28397;44.552;-0.848;2023-05-29T10:20:54;22.70;99.90
42743;DHT22;28397;44.552;-0.848;2023-05-29T10:23:23;22.80;99.90
42743;DHT22;28397;44.552;-0.848;2023-05-29T10:25:55;22.90;99.90
42743;DHT22;28397;44.552;-0.848;2023-05-29T10:28:25;23.00;99.90
42743;DHT22;28397;44.552;-0.848;2023-05-29T10:31:09;22.90;99.90
42743;DHT22;28397;44.552;-0.848;2023-05-29T10:36:32;23.00;99.90
42743;DHT22;28397;44.552;-0.848;2023-05-29T10:39:01;23.10;99.90
42743;DHT22;28397;44.552;-0.848;2023-05-29T10:41:30;23.20;99.90
42743;DHT22;28397;44.552;-0.848;2023-05-29T10:44:03;23.40;99.90
42743;DHT22;28397;44.552;-0.848;2023-05-29T10:49:20;23.50;99.90
42743;DHT22;28397;44.552;-0.848;2023-05-29T10:51:46;23.60;99.90
42743;DHT22;28397;44.552;-0.848;2023-05-29T10:54:12;23.70;99.90
42743;DHT22;28397;44.552;-0.848;2023-05-29T10:56:44;23.90;99.90
42743;DHT22;28397;44.552;-0.848;2023-05-29T10:59:10;23.90;99.90
42743;DHT22;28397;44.552;-0.848;2023-05-29T11:01:38;24.00;99.90
42743;DHT22;28397;44.552;-0.848;2023-05-29T11:06:51;24.30;99.90
42743;DHT22;28397;44.552;-0.848;2023-05-29T11:14:47;24.20;99.90
42743;DHT22;28397;44.552;-0.848;2023-05-29T11:20:28;24.10;99.90
42743;DHT22;28397;44.552;-0.848;2023-05-29T11:23:04;24.00;99.90
42743;DHT22;28397;44.552;-0.848;2023-05-29T11:25:35;24.00;99.90
42743;DHT22;28397;44.552;-0.848;2023-05-29T11:28:01;23.80;99.90
42743;DHT22;28397;44.552;-0.848;2023-05-29T11:30:29;23.80;99.90
42743;DHT22;28397;44.552;-0.848;2023-05-29T11:32:59;23.90;99.90
42743;DHT22;28397;44.552;-0.848;2023-05-29T11:35:29;23.80;99.90
42743;DHT22;28397;44.552;-0.848;2023-05-29T11:37:56;23.80;99.90
42743;DHT22;28397;44.552;-0.848;2023-05-29T11:40:23;23.80;99.90
42743;DHT22;28397;44.552;-0.848;2023-05-29T11:42:48;23.90;99.90
42743;DHT22;28397;44.552;-0.848;2023-05-29T11:45:17;24.00;99.90
42743;DHT22;28397;44.552;-0.848;2023-05-29T11:47:58;23.90;99.90
42743;DHT22;28397;44.552;-0.848;2023-05-29T11:50:26;24.00;99.90
42743;DHT22;28397;44.552;-0.848;2023-05-29T11:52:52;23.90;99.90
42743;DHT22;28397;44.552;-0.848;2023-05-29T11:55:21;24.10;99.90
42743;DHT22;28397;44.552;-0.848;2023-05-29T11:57:48;23.90;99.90
42743;DHT22;28397;44.552;-0.848;2023-05-29T12:00:18;23.90;99.90
42743;DHT22;28397;44.552;-0.848;2023-05-29T12:02:45;24.00;99.90
42743;DHT22;28397;44.552;-0.848;2023-05-29T12:05:14;24.00;99.90
42743;DHT22;28397;44.552;-0.848;2023-05-29T12:07:51;24.00;99.90
42743;DHT22;28397;44.552;-0.848;2023-05-29T12:10:18;24.10;99.90
42743;DHT22;28397;44.552;-0.848;2023-05-29T12:12:56;24.10;99.90
42743;DHT22;28397;44.552;-0.848;2023-05-29T12:15:22;24.00;99.90
42743;DHT22;28397;44.552;-0.848;2023-05-29T12:17:49;24.00;99.90
42743;DHT22;28397;44.552;-0.848;2023-05-29T12:20:16;24.10;99.90
42743;DHT22;28397;44.552;-0.848;2023-05-29T12:22:43;24.20;99.90
42743;DHT22;28397;44.552;-0.848;2023-05-29T12:25:17;24.30;99.90
42743;DHT22;28397;44.552;-0.848;2023-05-29T12:27:44;24.40;99.90
42743;DHT22;28397;44.552;-0.848;2023-05-29T12:30:14;24.50;99.90
42743;DHT22;28397;44.552;-0.848;2023-05-29T12:32:44;24.50;99.90
42743;DHT22;28397;44.552;-0.848;2023-05-29T12:37:45;24.60;99.90
42743;DHT22;28397;44.552;-0.848;2023-05-29T12:40:19;24.60;99.90
42743;DHT22;28397;44.552;-0.848;2023-05-29T12:42:48;24.60;99.90
42743;DHT22;28397;44.552;-0.848;2023-05-29T12:45:15;24.60;99.90
42743;DHT22;28397;44.552;-0.848;2023-05-29T12:47:56;24.80;99.90
42743;DHT22;28397;44.552;-0.848;2023-05-29T12:50:26;24.80;99.90
42743;DHT22;28397;44.552;-0.848;2023-05-29T12:55:24;24.90;99.90
42743;DHT22;28397;44.552;-0.848;2023-05-29T12:57:50;25.00;99.90
42743;DHT22;28397;44.552;-0.848;2023-05-29T13:00:17;25.10;99.90
42743;DHT22;28397;44.552;-0.848;2023-05-29T13:02:44;25.20;99.90
42743;DHT22;28397;44.552;-0.848;2023-05-29T13:05:09;25.10;99.90
42743;DHT22;28397;44.552;-0.848;2023-05-29T13:07:35;25.30;99.90
42743;DHT22;28397;44.552;-0.848;2023-05-29T13:10:01;25.30;99.90
42743;DHT22;28397;44.552;-0.848;2023-05-29T13:12:27;25.30;99.90
42743;DHT22;28397;44.552;-0.848;2023-05-29T13:14:53;25.40;99.90
42743;DHT22;28397;44.552;-0.848;2023-05-29T13:17:21;25.50;99.90
42743;DHT22;28397;44.552;-0.848;2023-05-29T13:19:47;25.60;99.90
42743;DHT22;28397;44.552;-0.848;2023-05-29T13:22:13;25.60;99.90
42743;DHT22;28397;44.552;-0.848;2023-05-29T13:24:38;25.70;99.90
42743;DHT22;28397;44.552;-0.848;2023-05-29T13:27:04;25.80;99.90
42743;DHT22;28397;44.552;-0.848;2023-05-29T13:29:31;26.00;99.90
42743;DHT22;28397;44.552;-0.848;2023-05-29T13:31:57;25.90;99.90
42743;DHT22;28397;44.552;-0.848;2023-05-29T13:34:22;26.00;99.90
42743;DHT22;28397;44.552;-0.848;2023-05-29T13:36:51;26.10;99.90
42743;DHT22;28397;44.552;-0.848;2023-05-29T13:39:16;26.20;99.90
42743;DHT22;28397;44.552;-0.848;2023-05-29T13:41:42;26.30;99.90
42743;DHT22;28397;44.552;-0.848;2023-05-29T13:44:08;26.20;99.90
42743;DHT22;28397;44.552;-0.848;2023-05-29T13:46:33;26.10;99.90
42743;DHT22;28397;44.552;-0.848;2023-05-29T13:48:59;26.40;99.90
42743;DHT22;28397;44.552;-0.848;2023-05-29T13:51:25;26.30;99.90
42743;DHT22;28397;44.552;-0.848;2023-05-29T13:53:51;26.20;99.90
42743;DHT22;28397;44.552;-0.848;2023-05-29T13:56:17;26.20;99.90
42743;DHT22;28397;44.552;-0.848;2023-05-29T13:58:42;26.40;99.90
42743;DHT22;28397;44.552;-0.848;2023-05-29T14:01:08;26.50;99.90
42743;DHT22;28397;44.552;-0.848;2023-05-29T14:03:33;26.40;99.90
42743;DHT22;28397;44.552;-0.848;2023-05-29T14:05:59;26.40;99.90
42743;DHT22;28397;44.552;-0.848;2023-05-29T14:08:25;26.50;99.90
42743;DHT22;28397;44.552;-0.848;2023-05-29T14:10:50;26.60;99.90
42743;DHT22;28397;44.552;-0.848;2023-05-29T14:13:16;26.80;99.90
42743;DHT22;28397;44.552;-0.848;2023-05-29T14:15:42;27.00;99.90
42743;DHT22;28397;44.552;-0.848;2023-05-29T14:18:08;27.00;99.90
42743;DHT22;28397;44.552;-0.848;2023-05-29T14:20:34;27.10;99.90
42743;DHT22;28397;44.552;-0.848;2023-05-29T14:22:59;27.00;99.90
42743;DHT22;28397;44.552;-0.848;2023-05-29T14:25:25;27.10;99.90
42743;DHT22;28397;44.552;-0.848;2023-05-29T14:27:51;27.30;99.90
42743;DHT22;28397;44.552;-0.848;2023-05-29T14:30:17;27.30;99.90
42743;DHT22;28397;44.552;-0.848;2023-05-29T14:32:43;27.30;99.90
42743;DHT22;28397;44.552;-0.848;2023-05-29T14:35:09;27.30;99.90
42743;DHT22;28397;44.552;-0.848;2023-05-29T14:37:35;27.30;99.90
42743;DHT22;28397;44.552;-0.848;2023-05-29T14:40:01;27.30;99.90
42743;DHT22;28397;44.552;-0.848;2023-05-29T14:42:26;27.10;99.90
42743;DHT22;28397;44.552;-0.848;2023-05-29T14:44:53;27.30;99.90
42743;DHT22;28397;44.552;-0.848;2023-05-29T14:47:18;27.20;99.90
42743;DHT22;28397;44.552;-0.848;2023-05-29T14:49:44;27.30;99.90
42743;DHT22;28397;44.552;-0.848;2023-05-29T14:52:10;27.30;99.90
42743;DHT22;28397;44.552;-0.848;2023-05-29T14:54:35;27.20;99.90
42743;DHT22;28397;44.552;-0.848;2023-05-29T14:57:01;27.00;99.90
42743;DHT22;28397;44.552;-0.848;2023-05-29T14:59:27;27.30;99.90
42743;DHT22;28397;44.552;-0.848;2023-05-29T15:01:53;27.40;99.90
42743;DHT22;28397;44.552;-0.848;2023-05-29T15:04:19;27.30;99.90
42743;DHT22;28397;44.552;-0.848;2023-05-29T15:06:45;27.50;99.90
42743;DHT22;28397;44.552;-0.848;2023-05-29T15:09:11;27.50;99.90
42743;DHT22;28397;44.552;-0.848;2023-05-29T15:11:36;27.50;99.90
42743;DHT22;28397;44.552;-0.848;2023-05-29T15:14:02;27.40;99.90
42743;DHT22;28397;44.552;-0.848;2023-05-29T15:16:28;27.40;99.90
42743;DHT22;28397;44.552;-0.848;2023-05-29T15:18:54;27.40;99.90
42743;DHT22;28397;44.552;-0.848;2023-05-29T15:21:20;27.40;99.90
42743;DHT22;28397;44.552;-0.848;2023-05-29T15:23:45;27.40;99.90
42743;DHT22;28397;44.552;-0.848;2023-05-29T15:26:11;27.60;99.90
42743;DHT22;28397;44.552;-0.848;2023-05-29T15:28:37;27.80;99.90
42743;DHT22;28397;44.552;-0.848;2023-05-29T15:31:03;27.70;99.90
42743;DHT22;28397;44.552;-0.848;2023-05-29T15:33:28;27.70;99.90
42743;DHT22;28397;44.552;-0.848;2023-05-29T15:35:54;27.70;99.90
42743;DHT22;28397;44.552;-0.848;2023-05-29T15:38:20;27.60;99.90
42743;DHT22;28397;44.552;-0.848;2023-05-29T15:40:46;27.50;99.90
42743;DHT22;28397;44.552;-0.848;2023-05-29T15:43:12;27.60;99.90
42743;DHT22;28397;44.552;-0.848;2023-05-29T15:45:37;27.80;99.90
42743;DHT22;28397;44.552;-0.848;2023-05-29T15:48:03;27.70;99.90